セントジョージズ の空港の天気 - METARとTAF

ポイント・サリンス国際空港 ( TGPY / GND ) - グレナダ セントジョージズ
飛行場実況気象(Metar)
観測時間08/18 12:00 AST (08/18 16:00 UTC)
風向・風速東 9m/s
視程10km以上
天気現象
少しの雲 雲底高度 550m
気温31℃
湿度70%
気圧1012hPa
METARTGPY 181600Z 10018KT 9999 FEW018 31/25 Q1012 NOSIG
過去の天気等 Google飛行場航空写真 Wunderground天気予報

過去48時間のMETAR

飛行場予報(TAF)
発表時間: 8/18 06:00 AST (8/18 10:00 UTC)
予報対象時間: 18日8時 AST ~ 19日8時 AST
風向・風速東 8m/s
視程10km以上
全天の4割程度の雲 雲底高度 550m
19日0時 AST ~ 19日2時 AST に徐々に
風向・風速東南東 8m/s
全天の8割程度の雲 雲底高度 520m
TGPY 181000Z 1812/1912 09015KT 9999 SCT018
BECMG 1904/1906 12015KT BKN017